Hauptseite
METAR-TAF:

METAR-TAF

Flughäfen :

Flugplatz Turin-Aeritalia

Turin, Italien

Breite: 45-05-20N, Länge: 007-36-20E, Höhe: 288 m

Beobachtung

Neuester Wetterbericht von vor 12 Stunden und 22 Minuten, um 13:50 UTC
Wind 3 kt aus Ost/Südost, variierte zwischen Nord/Nordost und Süd
Temperatur 24°C
Luftfeuchtigkeit 69%
Luftdruck 1011 hPa
Sichtweite: 7000 m
Aufgelockert bewölkt in der Höhe von 2000 ft

METAR: LIMA 161350Z 12003KT 030V180 7000 SCT020 24/18 Q1011

Zeit: 04:12 (02:12 UTC)


TAF: fehlend

Wetterbeobachtungen und Prognosen von mehr als 4000 Flughäfen (METAR und TAF Bericht).

Die verfügbaren Stationen werden durch gelbe und rote Markierungen auf der Karte dargestellt.

Führen Sie die Maus auf sie, um den Namen der Station zu sehen.

Darauf klicken, um die Beobachtung von Wetterbeobachtungen und Prognosen zu sehen.

Um die Karte zu ändern : klicken Sie auf den grünen Tasten mit einem schwarzen Kreuz Zum Vergrößern, auf den grünen Button mit einem Gedankenstrich zu verkleinern, oder auf die grünen Pfeile für benachbarte Karten.


METAR-TAF: